Time;durP1;ratioP1;P1;durP2;ratioP2;P2;SDS_P1;SDS_P2;PMS_P1;PMS_P2;Temp;Humidity;BMP_temperature;BMP_pressure;BME280_temperature;BME280_humidity;BME280_pressure;Samples;Min_cycle;Max_cycle;Signal;HPM_P1;HPM_P2
2023/08/03 00:00:37;;;;;;;;;;;17.40;81.00;;;;;;5067253;28;19955;-77
2023/08/03 00:03:02;;;;;;;;;;;17.40;81.00;;;;;;5068110;28;20320;-77
2023/08/03 00:05:28;;;;;;;;;;;17.40;81.00;;;;;;5068523;28;19928;-77
2023/08/03 00:07:53;;;;;;;;;;;17.40;81.00;;;;;;5067210;28;20030;-77
2023/08/03 00:10:20;;;;;;;;;;;17.40;81.00;;;;;;5068456;28;19913;-77
2023/08/03 00:12:46;;;;;;;;;;;17.40;81.00;;;;;;5068365;28;19917;-77
2023/08/03 00:15:13;;;;;;;;;;;17.30;80.90;;;;;;5068391;28;19913;-77
2023/08/03 00:17:38;;;;;;;;;;;17.30;80.90;;;;;;5068329;28;19938;-76
2023/08/03 00:20:05;;;;;;;;;;;17.30;80.90;;;;;;5068308;28;20020;-77
2023/08/03 00:22:31;;;;;;;;;;;17.30;80.90;;;;;;5068188;28;19916;-76
2023/08/03 00:24:58;;;;;;;;;;;17.20;80.90;;;;;;5066837;28;20237;-77
2023/08/03 00:27:24;;;;;;;;;;;17.30;81.00;;;;;;5068213;28;19913;-76
2023/08/03 00:29:49;;;;;;;;;;;17.20;81.00;;;;;;5068178;28;19916;-76
2023/08/03 00:32:15;;;;;;;;;;;17.20;81.00;;;;;;5068128;28;20356;-76
2023/08/03 00:34:40;;;;;;;;;;;17.20;81.00;;;;;;5068069;28;19908;-76
2023/08/03 00:37:06;;;;;;;;;;;17.20;81.00;;;;;;5066769;28;19986;-76
2023/08/03 00:39:32;;;;;;;;;;;17.20;81.00;;;;;;5066662;28;19909;-76
2023/08/03 00:41:57;;;;;;;;;;;17.20;81.00;;;;;;5050132;28;20426;-75
2023/08/03 00:44:23;;;;;;;;;;;17.20;80.90;;;;;;5067821;28;20351;-75
2023/08/03 00:46:49;;;;;;;;;;;17.20;80.90;;;;;;5067869;28;20348;-77
2023/08/03 00:49:14;;;;;;;;;;;17.20;81.00;;;;;;5067998;28;20372;-75
2023/08/03 00:51:40;;;;;;;;;;;17.20;80.90;;;;;;5067965;28;19915;-77
2023/08/03 00:54:08;;;;;;;;;;;17.20;80.90;;;;;;5067687;28;20015;-76
2023/08/03 00:56:34;;;;;;;;;;;17.10;80.90;;;;;;5066536;28;19919;-75
2023/08/03 00:59:00;;;;;;;;;;;17.10;80.90;;;;;;5067634;28;19908;-75
2023/08/03 01:01:26;;;;;;;;;;;17.10;80.90;;;;;;5067585;28;19924;-76
2023/08/03 01:03:52;;;;;;;;;;;17.10;81.00;;;;;;5067698;28;19919;-76
2023/08/03 01:06:17;;;;;;;;;;;17.00;80.90;;;;;;5067701;28;20321;-76
2023/08/03 01:08:43;;;;;;;;;;;17.00;80.90;;;;;;5067732;28;19966;-76
2023/08/03 01:11:08;;;;;;;;;;;17.00;81.00;;;;;;5066390;28;19928;-76
2023/08/03 01:13:34;;;;;;;;;;;16.90;81.00;;;;;;5049490;28;19920;-76
2023/08/03 01:16:00;;;;;;;;;;;16.90;81.10;;;;;;5067674;28;20025;-76
2023/08/03 01:18:25;;;;;;;;;;;16.80;81.20;;;;;;5067674;28;19922;-77
2023/08/03 01:20:51;;;;;;;;;;;16.80;81.20;;;;;;5067659;28;19959;-75
2023/08/03 01:23:17;;;;;;;;;;;16.80;81.30;;;;;;5067492;28;19924;-76
2023/08/03 01:25:42;;;;;;;;;;;16.80;81.30;;;;;;5066121;28;20374;-78
2023/08/03 01:28:08;;;;;;;;;;;16.80;81.20;;;;;;5067589;28;19919;-76
2023/08/03 01:30:34;;;;;;;;;;;16.80;81.10;;;;;;5067549;28;19916;-77
2023/08/03 01:32:59;;;;;;;;;;;16.80;81.10;;;;;;5067742;28;19941;-77
2023/08/03 01:35:25;;;;;;;;;;;16.80;81.10;;;;;;5068127;28;19912;-77
2023/08/03 01:37:51;;;;;;;;;;;16.80;81.20;;;;;;5067452;28;20367;-78
2023/08/03 01:40:17;;;;;;;;;;;16.80;81.10;;;;;;5067522;28;19922;-76
2023/08/03 01:42:42;;;;;;;;;;;16.80;81.10;;;;;;5067318;28;20411;-77
2023/08/03 01:45:08;;;;;;;;;;;16.80;81.10;;;;;;5066012;28;19916;-77
2023/08/03 01:47:34;;;;;;;;;;;16.80;81.00;;;;;;5067335;28;19955;-76
2023/08/03 01:49:59;;;;;;;;;;;16.70;81.00;;;;;;5067358;28;19916;-76
2023/08/03 01:52:25;;;;;;;;;;;16.60;81.00;;;;;;5065993;28;20426;-76
2023/08/03 01:54:51;;;;;;;;;;;16.60;81.00;;;;;;5067298;28;19947;-76
2023/08/03 01:57:17;;;;;;;;;;;16.50;80.90;;;;;;5065911;28;19916;-76
2023/08/03 01:59:43;;;;;;;;;;;16.50;80.90;;;;;;5070211;28;19909;-76
2023/08/03 02:02:09;;;;;;;;;;;16.40;80.90;;;;;;5069415;28;20017;-76
2023/08/03 02:04:34;;;;;;;;;;;16.40;80.90;;;;;;5069754;28;20381;-76
2023/08/03 02:07:20;;;;;;;;;;;16.40;80.80;;;;;;5069599;28;20009;-76
2023/08/03 02:09:46;;;;;;;;;;;16.30;80.80;;;;;;5070218;28;20502;-76
2023/08/03 02:12:11;;;;;;;;;;;16.20;80.70;;;;;;5070684;28;20003;-76
2023/08/03 02:14:37;;;;;;;;;;;16.20;80.80;;;;;;5070578;28;20296;-76
2023/08/03 02:17:02;;;;;;;;;;;16.10;80.70;;;;;;5070632;28;20300;-76
2023/08/03 02:19:28;;;;;;;;;;;16.10;80.70;;;;;;5069444;28;19958;-76
2023/08/03 02:21:53;;;;;;;;;;;16.00;80.70;;;;;;5069203;28;19922;-76
2023/08/03 02:24:19;;;;;;;;;;;15.90;80.60;;;;;;5070451;28;19929;-76
2023/08/03 02:26:45;;;;;;;;;;;15.80;80.60;;;;;;5052610;28;19916;-76
2023/08/03 02:29:10;;;;;;;;;;;15.80;80.70;;;;;;5070449;28;19913;-76
2023/08/03 02:31:36;;;;;;;;;;;15.70;80.70;;;;;;5069031;28;20296;-76
2023/08/03 02:34:01;;;;;;;;;;;15.70;80.70;;;;;;5052276;28;19970;-76
2023/08/03 02:36:27;;;;;;;;;;;15.60;80.60;;;;;;5069122;28;19924;-76
2023/08/03 02:38:52;;;;;;;;;;;15.60;80.70;;;;;;5070314;28;19913;-76
2023/08/03 02:41:18;;;;;;;;;;;15.50;80.60;;;;;;5070265;28;20272;-76
2023/08/03 02:43:43;;;;;;;;;;;15.40;80.60;;;;;;5068713;28;19923;-76
2023/08/03 02:46:09;;;;;;;;;;;15.40;80.70;;;;;;5068772;28;19994;-76
2023/08/03 02:48:35;;;;;;;;;;;15.30;80.70;;;;;;5070061;28;20019;-76
2023/08/03 02:51:00;;;;;;;;;;;15.30;80.80;;;;;;5070616;28;20389;-76
2023/08/03 02:53:26;;;;;;;;;;;15.20;80.70;;;;;;5068498;28;20011;-76
2023/08/03 02:55:51;;;;;;;;;;;15.20;80.70;;;;;;5069843;28;19920;-76
2023/08/03 02:58:17;;;;;;;;;;;15.20;80.70;;;;;;5069890;28;19916;-76
2023/08/03 03:00:42;;;;;;;;;;;15.10;80.70;;;;;;5068589;28;19958;-76
2023/08/03 03:03:08;;;;;;;;;;;15.10;80.70;;;;;;5069713;28;20364;-76
2023/08/03 03:05:33;;;;;;;;;;;15.10;80.80;;;;;;5068377;28;19958;-76
2023/08/03 03:07:59;;;;;;;;;;;15.00;80.70;;;;;;5068364;28;19913;-76
2023/08/03 03:10:25;;;;;;;;;;;15.00;80.70;;;;;;5070910;28;19909;-76
2023/08/03 03:12:50;;;;;;;;;;;15.00;80.60;;;;;;5070590;28;20379;-76
2023/08/03 03:15:16;;;;;;;;;;;15.00;80.70;;;;;;5068329;28;20327;-76
2023/08/03 03:17:42;;;;;;;;;;;14.90;80.60;;;;;;5069721;28;20003;-76
2023/08/03 03:20:08;;;;;;;;;;;14.90;80.60;;;;;;5069493;28;19908;-76
2023/08/03 03:22:35;;;;;;;;;;;14.90;80.60;;;;;;5068305;28;19912;-76
2023/08/03 03:25:02;;;;;;;;;;;14.90;80.60;;;;;;5069710;28;19924;-76
2023/08/03 03:27:28;;;;;;;;;;;14.80;80.50;;;;;;5069355;28;19908;-76
2023/08/03 03:29:53;;;;;;;;;;;14.80;80.60;;;;;;5067920;28;19989;-76
2023/08/03 03:32:19;;;;;;;;;;;14.80;80.60;;;;;;5069211;28;20026;-76
2023/08/03 03:34:45;;;;;;;;;;;14.80;80.60;;;;;;5069161;28;19959;-76
2023/08/03 03:37:10;;;;;;;;;;;14.70;80.50;;;;;;5069195;28;19916;-76
2023/08/03 03:39:36;;;;;;;;;;;14.70;80.50;;;;;;5067724;28;19912;-76
2023/08/03 03:42:02;;;;;;;;;;;14.70;80.50;;;;;;5069026;28;19918;-76
2023/08/03 03:44:28;;;;;;;;;;;14.70;80.50;;;;;;5067805;28;20019;-76
2023/08/03 03:46:53;;;;;;;;;;;14.70;80.60;;;;;;5069068;28;19913;-76
2023/08/03 03:49:19;;;;;;;;;;;14.60;80.50;;;;;;5068989;28;20361;-76
2023/08/03 03:51:44;;;;;;;;;;;14.60;80.50;;;;;;5067445;28;19913;-76
2023/08/03 03:54:10;;;;;;;;;;;14.60;80.40;;;;;;5067356;28;19921;-76
2023/08/03 03:56:35;;;;;;;;;;;14.60;80.50;;;;;;5068766;28;19923;-76
2023/08/03 03:59:01;;;;;;;;;;;14.60;80.50;;;;;;5067636;28;20313;-76
2023/08/03 04:01:27;;;;;;;;;;;14.60;80.50;;;;;;5067265;28;19931;-76
2023/08/03 04:03:52;;;;;;;;;;;14.60;80.50;;;;;;5067373;28;19912;-76
2023/08/03 04:06:20;;;;;;;;;;;14.60;80.50;;;;;;5066541;28;20465;-75
2023/08/03 04:08:45;;;;;;;;;;;14.60;80.50;;;;;;5067031;28;19921;-76
2023/08/03 04:11:11;;;;;;;;;;;14.60;80.40;;;;;;5067078;28;19913;-76
2023/08/03 04:13:36;;;;;;;;;;;14.70;80.40;;;;;;5068299;28;19917;-76
2023/08/03 04:16:02;;;;;;;;;;;14.60;80.40;;;;;;5068267;28;19917;-76
2023/08/03 04:18:27;;;;;;;;;;;14.70;80.40;;;;;;5068360;28;19915;-76
2023/08/03 04:20:53;;;;;;;;;;;14.60;80.40;;;;;;5066444;28;19916;-76
2023/08/03 04:23:19;;;;;;;;;;;14.60;80.40;;;;;;5068156;28;20366;-76
2023/08/03 04:25:44;;;;;;;;;;;14.60;80.40;;;;;;5068187;28;19982;-76
2023/08/03 04:28:10;;;;;;;;;;;14.50;80.30;;;;;;5066797;28;19916;-76
2023/08/03 04:30:36;;;;;;;;;;;14.50;80.40;;;;;;5066929;28;19913;-76
2023/08/03 04:33:01;;;;;;;;;;;14.50;80.40;;;;;;5068018;28;20018;-76
2023/08/03 04:35:27;;;;;;;;;;;14.50;80.50;;;;;;5066747;28;19916;-76
2023/08/03 04:37:52;;;;;;;;;;;14.40;80.50;;;;;;5066820;28;19920;-76
2023/08/03 04:40:18;;;;;;;;;;;14.40;80.50;;;;;;5066704;28;19922;-76
2023/08/03 04:42:43;;;;;;;;;;;14.50;80.60;;;;;;5067682;28;19912;-76
2023/08/03 04:45:09;;;;;;;;;;;14.50;80.70;;;;;;5068995;28;20341;-76
2023/08/03 04:47:35;;;;;;;;;;;14.60;80.70;;;;;;5068542;28;19908;-75
2023/08/03 04:50:00;;;;;;;;;;;14.70;80.70;;;;;;5067871;28;20415;-76
2023/08/03 04:52:26;;;;;;;;;;;14.70;80.70;;;;;;5067683;28;19912;-76
2023/08/03 04:54:51;;;;;;;;;;;14.70;80.70;;;;;;5067887;28;19944;-76
2023/08/03 04:57:17;;;;;;;;;;;14.80;80.70;;;;;;5067883;28;20372;-76
2023/08/03 04:59:42;;;;;;;;;;;14.80;80.60;;;;;;5067994;28;20372;-76
2023/08/03 05:02:08;;;;;;;;;;;14.90;80.70;;;;;;5067605;28;20287;-76
2023/08/03 05:04:34;;;;;;;;;;;15.00;80.70;;;;;;5067597;28;19916;-76
2023/08/03 05:06:59;;;;;;;;;;;15.10;80.70;;;;;;5049544;28;19919;-76
2023/08/03 05:09:26;;;;;;;;;;;15.20;80.70;;;;;;5066333;28;19999;-76
2023/08/03 05:11:51;;;;;;;;;;;15.30;80.70;;;;;;5067608;28;19921;-76
2023/08/03 05:14:17;;;;;;;;;;;15.40;80.70;;;;;;5049265;28;19981;-76
2023/08/03 05:16:42;;;;;;;;;;;15.40;80.50;;;;;;5067473;28;19916;-76
2023/08/03 05:19:08;;;;;;;;;;;15.40;80.40;;;;;;5066371;28;19913;-78
2023/08/03 05:21:33;;;;;;;;;;;15.40;80.40;;;;;;5068019;28;19913;-75
2023/08/03 05:23:59;;;;;;;;;;;15.40;80.40;;;;;;5066155;28;19912;-75
2023/08/03 05:26:26;;;;;;;;;;;15.50;80.60;;;;;;5066316;28;19917;-74
2023/08/03 05:28:51;;;;;;;;;;;15.60;80.60;;;;;;5049564;28;19913;-75
2023/08/03 05:31:17;;;;;;;;;;;15.70;80.50;;;;;;5066037;28;19916;-74
2023/08/03 05:33:42;;;;;;;;;;;15.70;80.50;;;;;;5068897;28;19922;-75
2023/08/03 05:36:08;;;;;;;;;;;15.80;80.60;;;;;;5071322;28;20369;-75
2023/08/03 05:38:34;;;;;;;;;;;15.90;80.60;;;;;;5070975;28;20452;-77
2023/08/03 05:40:59;;;;;;;;;;;16.10;80.50;;;;;;5071318;28;19909;-75
2023/08/03 05:43:26;;;;;;;;;;;16.10;80.40;;;;;;5071287;28;19913;-75
2023/08/03 05:45:55;;;;;;;;;;;16.20;80.50;;;;;;5069710;28;20414;-75
2023/08/03 05:48:21;;;;;;;;;;;16.30;81.00;;;;;;5071057;28;19954;-75
2023/08/03 05:50:47;;;;;;;;;;;16.30;80.50;;;;;;5071475;28;19920;-74
2023/08/03 05:53:13;;;;;;;;;;;16.40;80.50;;;;;;5069579;28;19977;-77
2023/08/03 05:55:39;;;;;;;;;;;16.40;80.40;;;;;;5070865;28;20360;-75
2023/08/03 05:58:05;;;;;;;;;;;16.50;80.50;;;;;;5070818;28;19919;-77
2023/08/03 06:00:31;;;;;;;;;;;16.50;80.60;;;;;;5070524;28;19912;-69
2023/08/03 06:02:57;;;;;;;;;;;16.40;80.70;;;;;;5070375;28;19932;-67
2023/08/03 06:05:32;;;;;;;;;;;16.40;81.00;;;;;;5070630;28;19916;-67
2023/08/03 06:07:58;;;;;;;;;;;16.40;81.10;;;;;;5070636;28;19916;-75
2023/08/03 06:10:23;;;;;;;;;;;16.40;81.20;;;;;;5069195;28;19919;-75
2023/08/03 06:12:49;;;;;;;;;;;16.40;81.30;;;;;;5069340;28;19913;-75
2023/08/03 06:15:16;;;;;;;;;;;16.50;81.20;;;;;;5070395;28;19913;-77
2023/08/03 06:17:41;;;;;;;;;;;16.50;81.20;;;;;;5070482;28;19909;-77
2023/08/03 06:20:11;;;;;;;;;;;16.50;81.20;;;;;;5070568;28;20372;-75
2023/08/03 06:22:36;;;;;;;;;;;16.50;81.10;;;;;;5073954;28;19908;-75
2023/08/03 06:25:05;;;;;;;;;;;16.50;81.20;;;;;;5070582;28;20340;-75
2023/08/03 06:27:30;;;;;;;;;;;16.50;81.20;;;;;;5070377;28;19912;-75
2023/08/03 06:29:56;;;;;;;;;;;16.40;81.20;;;;;;5070075;28;20486;-75
2023/08/03 06:32:23;;;;;;;;;;;16.40;81.30;;;;;;5068965;28;19916;-75
2023/08/03 06:34:49;;;;;;;;;;;16.50;81.40;;;;;;5070026;28;19930;-75
2023/08/03 06:37:14;;;;;;;;;;;16.50;81.40;;;;;;5069978;28;20003;-75
2023/08/03 06:39:40;;;;;;;;;;;16.50;81.30;;;;;;5069943;28;19918;-77
2023/08/03 06:42:06;;;;;;;;;;;16.50;81.30;;;;;;5052288;28;20425;-77
2023/08/03 06:44:31;;;;;;;;;;;16.40;81.30;;;;;;5069674;28;19966;-77
2023/08/03 06:46:57;;;;;;;;;;;16.40;81.30;;;;;;5069759;28;19916;-75
2023/08/03 06:49:22;;;;;;;;;;;16.30;81.30;;;;;;5069883;28;19912;-77
2023/08/03 06:51:48;;;;;;;;;;;16.30;81.30;;;;;;5070086;28;19963;-77
2023/08/03 06:54:14;;;;;;;;;;;16.30;81.40;;;;;;5051633;28;19926;-75
2023/08/03 06:56:39;;;;;;;;;;;16.30;81.50;;;;;;5069704;28;19952;-75
2023/08/03 06:59:05;;;;;;;;;;;16.30;81.50;;;;;;5069550;28;20396;-77
2023/08/03 07:01:30;;;;;;;;;;;16.40;81.50;;;;;;5068078;28;19924;-77
2023/08/03 07:03:56;;;;;;;;;;;16.40;81.40;;;;;;5069840;28;19978;-77
2023/08/03 07:06:21;;;;;;;;;;;16.40;81.50;;;;;;5068205;28;20403;-75
2023/08/03 07:08:47;;;;;;;;;;;16.40;81.50;;;;;;5068006;28;19913;-75
2023/08/03 07:11:12;;;;;;;;;;;16.50;81.50;;;;;;5069482;28;19913;-75
2023/08/03 07:13:38;;;;;;;;;;;16.50;81.60;;;;;;5069612;28;19966;-75
2023/08/03 07:16:09;;;;;;;;;;;16.60;81.60;;;;;;5069274;28;20376;-75
2023/08/03 07:18:36;;;;;;;;;;;16.60;81.50;;;;;;5069203;28;19913;-75
2023/08/03 07:21:05;;;;;;;;;;;16.70;81.60;;;;;;5067667;28;19909;-75
2023/08/03 07:23:30;;;;;;;;;;;16.80;81.60;;;;;;5067669;28;20521;-75
2023/08/03 07:25:56;;;;;;;;;;;16.90;81.60;;;;;;5068942;28;19970;-75
2023/08/03 07:28:22;;;;;;;;;;;17.00;81.40;;;;;;5068977;28;19908;-75
2023/08/03 07:30:47;;;;;;;;;;;17.10;81.40;;;;;;5068808;28;19920;-75
2023/08/03 07:33:13;;;;;;;;;;;17.10;81.40;;;;;;5067161;28;20372;-75
2023/08/03 07:35:38;;;;;;;;;;;17.00;81.30;;;;;;5068805;28;19923;-75
2023/08/03 07:38:04;;;;;;;;;;;17.00;81.40;;;;;;5068654;28;19995;-77
2023/08/03 07:40:29;;;;;;;;;;;16.90;81.40;;;;;;5050810;28;19916;-75
2023/08/03 07:42:55;;;;;;;;;;;16.80;81.50;;;;;;5050489;28;20353;-76
2023/08/03 07:45:21;;;;;;;;;;;16.80;81.80;;;;;;5068406;28;20288;-75
2023/08/03 07:47:46;;;;;;;;;;;16.80;81.80;;;;;;5050538;28;20335;-75
2023/08/03 07:50:12;;;;;;;;;;;16.90;81.70;;;;;;5068287;28;19915;-76
2023/08/03 07:52:39;;;;;;;;;;;16.80;81.60;;;;;;5068201;28;19908;-76
2023/08/03 07:55:05;;;;;;;;;;;16.80;81.80;;;;;;5068447;28;19916;-74
2023/08/03 07:57:30;;;;;;;;;;;16.90;81.90;;;;;;5071688;28;19909;-74
2023/08/03 07:59:56;;;;;;;;;;;17.00;82.00;;;;;;5069442;28;19917;-76
2023/08/03 08:02:21;;;;;;;;;;;17.30;82.30;;;;;;5068058;28;19924;-76
2023/08/03 08:04:48;;;;;;;;;;;17.80;82.20;;;;;;5068102;28;19953;-76
2023/08/03 08:07:13;;;;;;;;;;;18.20;81.80;;;;;;5068065;28;19913;-76
2023/08/03 08:09:39;;;;;;;;;;;18.40;81.40;;;;;;5066772;28;19912;-75
2023/08/03 08:12:06;;;;;;;;;;;18.60;81.50;;;;;;5068214;28;19912;-75
2023/08/03 08:14:31;;;;;;;;;;;18.80;81.40;;;;;;5066396;28;19909;-75
2023/08/03 08:16:57;;;;;;;;;;;19.10;81.60;;;;;;5068027;28;20011;-75
2023/08/03 08:19:23;;;;;;;;;;;19.40;81.40;;;;;;5066721;28;20309;-75
2023/08/03 08:21:48;;;;;;;;;;;19.50;81.10;;;;;;5067750;28;19969;-76
2023/08/03 08:24:14;;;;;;;;;;;19.50;81.00;;;;;;5067677;28;19917;-75
2023/08/03 08:26:39;;;;;;;;;;;19.40;80.90;;;;;;5066015;28;19959;-76
2023/08/03 08:29:05;;;;;;;;;;;19.30;81.00;;;;;;5067601;28;19917;-75
2023/08/03 08:31:31;;;;;;;;;;;19.10;81.20;;;;;;5065870;28;19928;-77
2023/08/03 08:33:57;;;;;;;;;;;18.90;81.50;;;;;;5067399;28;20352;-76
2023/08/03 08:36:22;;;;;;;;;;;18.70;81.30;;;;;;5065876;28;19948;-76
2023/08/03 08:38:48;;;;;;;;;;;18.60;81.60;;;;;;5067400;28;20006;-66
2023/08/03 08:41:13;;;;;;;;;;;18.50;81.70;;;;;;5086843;28;19912;-76
2023/08/03 08:43:40;;;;;;;;;;;18.60;81.70;;;;;;5087601;28;19912;-76
2023/08/03 08:46:06;;;;;;;;;;;18.80;81.80;;;;;;5087507;28;19926;-75
2023/08/03 08:48:33;;;;;;;;;;;19.10;82.40;;;;;;5087707;28;19908;-75
2023/08/03 08:51:00;;;;;;;;;;;19.50;82.90;;;;;;5087492;28;19957;-75
2023/08/03 08:53:25;;;;;;;;;;;20.00;82.20;;;;;;5087400;28;19996;-75
2023/08/03 08:55:51;;;;;;;;;;;20.30;82.10;;;;;;5087118;28;19948;-75
2023/08/03 08:58:16;;;;;;;;;;;20.60;81.80;;;;;;5086246;28;19940;-76
2023/08/03 09:00:43;;;;;;;;;;;20.80;81.80;;;;;;5085485;28;20026;-75
2023/08/03 09:03:09;;;;;;;;;;;20.90;81.70;;;;;;5067472;28;19924;-76
2023/08/03 09:05:36;;;;;;;;;;;20.90;81.40;;;;;;5067404;28;19924;-76
2023/08/03 09:08:13;;;;;;;;;;;20.50;81.10;;;;;;5071520;28;19916;-75
2023/08/03 09:10:51;;;;;;;;;;;20.20;81.40;;;;;;5074112;28;19969;-75
2023/08/03 09:13:35;;;;;;;;;;;20.00;81.50;;;;;;5075919;28;20261;-77
2023/08/03 09:16:01;;;;;;;;;;;19.70;81.30;;;;;;5075205;28;19919;-78
2023/08/03 09:18:27;;;;;;;;;;;19.50;81.60;;;;;;5075950;28;19917;-77
2023/08/03 09:21:09;;;;;;;;;;;19.40;81.70;;;;;;5075928;28;20487;-77
2023/08/03 09:23:36;;;;;;;;;;;19.30;81.70;;;;;;5073405;28;19966;-77
2023/08/03 09:26:02;;;;;;;;;;;19.20;82.00;;;;;;5068336;28;19920;-77
2023/08/03 09:28:38;;;;;;;;;;;19.20;81.90;;;;;;5074169;28;19916;-78
2023/08/03 09:31:04;;;;;;;;;;;19.10;81.80;;;;;;5055407;28;20012;-78
2023/08/03 09:33:30;;;;;;;;;;;19.00;81.70;;;;;;5074339;28;19920;-77
2023/08/03 09:36:07;;;;;;;;;;;18.90;81.80;;;;;;5075860;28;19912;-77
2023/08/03 09:38:33;;;;;;;;;;;18.80;81.70;;;;;;5074113;28;19916;-78
2023/08/03 09:40:59;;;;;;;;;;;18.80;81.80;;;;;;5075428;28;19912;-77
2023/08/03 09:43:26;;;;;;;;;;;18.80;81.90;;;;;;5075695;28;20481;-78
2023/08/03 09:45:52;;;;;;;;;;;18.90;82.00;;;;;;5075375;28;19919;-76
2023/08/03 09:48:20;;;;;;;;;;;18.90;81.80;;;;;;5075356;28;20510;-75
2023/08/03 09:50:51;;;;;;;;;;;18.90;81.90;;;;;;5075111;28;19977;-76
2023/08/03 09:53:19;;;;;;;;;;;18.90;81.70;;;;;;5074337;28;19920;-74
2023/08/03 09:55:47;;;;;;;;;;;18.90;81.60;;;;;;5066920;28;19909;-77
2023/08/03 09:58:18;;;;;;;;;;;18.80;81.70;;;;;;5075428;28;19915;-78
2023/08/03 10:00:44;;;;;;;;;;;18.80;81.80;;;;;;5075296;28;19999;-78
2023/08/03 10:03:11;;;;;;;;;;;18.70;81.70;;;;;;5095354;28;20006;-74
2023/08/03 10:05:51;;;;;;;;;;;18.80;81.70;;;;;;5093795;28;19923;-73
2023/08/03 10:08:21;;;;;;;;;;;19.00;81.80;;;;;;5094835;28;19978;-78
2023/08/03 10:10:48;;;;;;;;;;;19.30;82.20;;;;;;5094929;28;19916;-76
2023/08/03 10:13:14;;;;;;;;;;;19.90;82.10;;;;;;5096133;28;20011;-80
2023/08/03 10:15:40;;;;;;;;;;;20.10;81.60;;;;;;5094237;28;19915;-78
2023/08/03 10:18:06;;;;;;;;;;;20.30;81.60;;;;;;5094895;28;20003;-80
2023/08/03 10:20:32;;;;;;;;;;;20.40;81.60;;;;;;5090704;28;20314;-78
2023/08/03 10:23:10;;;;;;;;;;;20.90;82.40;;;;;;5090935;28;20623;-78
2023/08/03 10:25:56;;;;;;;;;;;22.10;83.40;;;;;;5092436;28;19923;-79
2023/08/03 10:28:22;;;;;;;;;;;23.20;83.30;;;;;;5091973;28;19915;-80
2023/08/03 10:31:00;;;;;;;;;;;24.60;83.10;;;;;;5091807;28;19908;-74
2023/08/03 10:33:49;;;;;;;;;;;25.30;82.00;;;;;;5091367;28;19991;-80
2023/08/03 10:36:37;;;;;;;;;;;25.10;80.70;;;;;;5085621;28;19912;-79
2023/08/03 10:39:04;;;;;;;;;;;24.40;80.50;;;;;;5087616;28;19917;-78
2023/08/03 10:41:36;;;;;;;;;;;23.50;80.40;;;;;;5071772;28;19913;-75
2023/08/03 10:44:05;;;;;;;;;;;23.10;81.80;;;;;;5072060;28;19913;-79
2023/08/03 10:46:31;;;;;;;;;;;23.00;82.80;;;;;;5070746;28;19966;-75
2023/08/03 10:48:56;;;;;;;;;;;23.60;83.60;;;;;;5069357;28;20386;-76
2023/08/03 10:51:22;;;;;;;;;;;24.00;83.40;;;;;;5081253;28;20002;-76
2023/08/03 10:53:48;;;;;;;;;;;24.20;82.80;;;;;;5090821;28;19908;-77
2023/08/03 10:56:14;;;;;;;;;;;24.00;82.10;;;;;;5090383;28;19919;-81
2023/08/03 10:58:50;;;;;;;;;;;23.50;81.80;;;;;;5091486;28;19912;-78
2023/08/03 11:01:22;;;;;;;;;;;22.90;81.50;;;;;;5090926;28;19919;-78
2023/08/03 11:03:48;;;;;;;;;;;22.30;81.90;;;;;;5091246;28;19916;-80
2023/08/03 11:06:13;;;;;;;;;;;22.10;82.50;;;;;;5077782;28;19924;-78
2023/08/03 11:08:39;;;;;;;;;;;22.80;84.70;;;;;;5071357;28;19909;-77
2023/08/03 11:11:10;;;;;;;;;;;24.00;84.50;;;;;;5089900;28;19916;-78
2023/08/03 11:13:36;;;;;;;;;;;24.50;82.80;;;;;;5071228;28;20146;-79
2023/08/03 11:16:02;;;;;;;;;;;24.40;82.10;;;;;;5084779;28;19916;-69
2023/08/03 11:18:27;;;;;;;;;;;24.10;81.60;;;;;;5091216;28;19916;-76
2023/08/03 11:20:53;;;;;;;;;;;23.80;81.60;;;;;;5090887;28;19963;-76
2023/08/03 11:23:18;;;;;;;;;;;23.50;82.00;;;;;;5088714;28;19916;-77
2023/08/03 11:25:44;;;;;;;;;;;23.20;82.30;;;;;;5090214;28;19923;-80
2023/08/03 11:28:15;;;;;;;;;;;23.00;82.10;;;;;;5091902;28;19915;-81
2023/08/03 11:30:44;;;;;;;;;;;22.90;82.40;;;;;;5089716;28;19908;-78
2023/08/03 11:33:13;;;;;;;;;;;22.90;82.90;;;;;;5090782;28;20008;-78
2023/08/03 11:35:39;;;;;;;;;;;23.00;82.80;;;;;;5090077;28;19935;-78
2023/08/03 11:38:08;;;;;;;;;;;23.00;82.70;;;;;;5090365;28;20344;-75
2023/08/03 11:40:35;;;;;;;;;;;23.00;82.80;;;;;;5090546;28;19930;-79
2023/08/03 11:43:01;;;;;;;;;;;23.00;82.80;;;;;;5089115;28;19908;-78
2023/08/03 11:45:30;;;;;;;;;;;23.00;82.70;;;;;;5089229;28;20352;-76
2023/08/03 11:47:57;;;;;;;;;;;23.10;82.70;;;;;;5089244;28;20262;-76
2023/08/03 11:50:24;;;;;;;;;;;23.60;83.30;;;;;;5090498;28;19908;-77
2023/08/03 11:52:56;;;;;;;;;;;24.20;83.10;;;;;;5089842;28;19915;-77
2023/08/03 11:55:26;;;;;;;;;;;24.30;82.30;;;;;;5090044;28;19908;-77
2023/08/03 11:58:10;;;;;;;;;;;24.20;81.80;;;;;;5090570;28;20264;-79
2023/08/03 12:00:45;;;;;;;;;;;24.00;81.50;;;;;;5089865;28;20014;-79
2023/08/03 12:03:17;;;;;;;;;;;23.80;81.80;;;;;;5089617;28;19920;-79
2023/08/03 12:05:46;;;;;;;;;;;23.70;82.60;;;;;;5090071;28;20350;-76
2023/08/03 12:08:15;;;;;;;;;;;24.40;83.90;;;;;;5089062;28;19920;-75
2023/08/03 12:10:54;;;;;;;;;;;25.30;83.70;;;;;;5088625;28;19909;-75
2023/08/03 12:13:19;;;;;;;;;;;25.70;83.00;;;;;;5087817;28;19948;-77
2023/08/03 12:15:45;;;;;;;;;;;25.50;81.90;;;;;;5089352;28;19960;-77
2023/08/03 12:18:11;;;;;;;;;;;25.20;81.60;;;;;;5089777;28;19933;-77
2023/08/03 12:20:36;;;;;;;;;;;24.80;81.00;;;;;;5089487;28;19922;-77
2023/08/03 12:23:02;;;;;;;;;;;24.30;81.50;;;;;;5069207;28;20038;-77
2023/08/03 12:25:27;;;;;;;;;;;24.00;82.10;;;;;;5085868;28;19970;-77
2023/08/03 12:27:53;;;;;;;;;;;23.90;82.20;;;;;;5087740;28;20376;-77
2023/08/03 12:30:18;;;;;;;;;;;23.90;82.10;;;;;;5089282;28;20245;-79
2023/08/03 12:32:44;;;;;;;;;;;23.90;81.90;;;;;;5088454;28;19939;-78
2023/08/03 12:35:10;;;;;;;;;;;23.80;82.30;;;;;;5089230;28;19912;-77
2023/08/03 12:37:36;;;;;;;;;;;23.90;82.10;;;;;;5088121;28;20533;-77
2023/08/03 12:40:02;;;;;;;;;;;23.90;82.30;;;;;;5087888;28;19912;-80
2023/08/03 12:42:28;;;;;;;;;;;23.90;82.20;;;;;;5088097;28;19965;-78
2023/08/03 12:44:53;;;;;;;;;;;23.90;82.40;;;;;;5089946;28;19912;-77
2023/08/03 12:47:19;;;;;;;;;;;24.10;82.40;;;;;;5089258;28;20010;-77
2023/08/03 12:49:44;;;;;;;;;;;24.30;82.50;;;;;;5089488;28;19912;-80
2023/08/03 12:52:10;;;;;;;;;;;24.60;82.70;;;;;;5087834;28;20660;-77
2023/08/03 12:54:35;;;;;;;;;;;24.80;82.20;;;;;;5089151;28;19920;-75
2023/08/03 12:57:01;;;;;;;;;;;24.90;82.40;;;;;;5089195;28;19919;-79
2023/08/03 12:59:26;;;;;;;;;;;24.90;82.30;;;;;;5089405;28;20003;-79
2023/08/03 13:01:53;;;;;;;;;;;24.60;81.90;;;;;;5088689;28;19927;-79
2023/08/03 13:04:18;;;;;;;;;;;24.20;82.00;;;;;;5087728;28;19927;-78
2023/08/03 13:06:44;;;;;;;;;;;23.90;81.90;;;;;;5088467;28;20296;-80
2023/08/03 13:09:09;;;;;;;;;;;23.50;82.10;;;;;;5070379;28;19912;-79
2023/08/03 13:11:35;;;;;;;;;;;23.20;82.10;;;;;;5088438;28;20010;-76
2023/08/03 13:14:00;;;;;;;;;;;23.00;82.30;;;;;;5087863;28;20391;-76
2023/08/03 13:16:26;;;;;;;;;;;22.80;82.40;;;;;;5089645;28;19919;-77
2023/08/03 13:18:52;;;;;;;;;;;22.70;82.70;;;;;;5089696;28;19913;-79
2023/08/03 13:21:18;;;;;;;;;;;22.80;83.20;;;;;;5088885;28;20331;-79
2023/08/03 13:23:44;;;;;;;;;;;23.10;83.30;;;;;;5088945;28;19908;-78
2023/08/03 13:26:09;;;;;;;;;;;23.40;82.80;;;;;;5071403;28;19923;-80
2023/08/03 13:28:35;;;;;;;;;;;23.50;82.60;;;;;;5089538;28;19923;-79
2023/08/03 13:31:00;;;;;;;;;;;23.70;82.50;;;;;;5087465;28;19999;-80
2023/08/03 13:33:26;;;;;;;;;;;23.70;82.20;;;;;;5088489;28;19969;-80
2023/08/03 13:35:52;;;;;;;;;;;23.80;82.30;;;;;;5086792;28;19916;-74
2023/08/03 13:38:17;;;;;;;;;;;24.00;82.20;;;;;;5088134;28;19912;-78
2023/08/03 13:40:43;;;;;;;;;;;24.00;81.80;;;;;;5088393;28;19912;-76
2023/08/03 13:43:08;;;;;;;;;;;23.90;81.50;;;;;;5087980;28;19912;-77
2023/08/03 13:45:34;;;;;;;;;;;23.80;81.20;;;;;;5088025;28;19916;-78
2023/08/03 13:47:59;;;;;;;;;;;23.40;81.00;;;;;;5086706;28;19994;-78
2023/08/03 13:50:25;;;;;;;;;;;23.10;81.10;;;;;;5088056;28;20268;-78
2023/08/03 13:52:51;;;;;;;;;;;22.90;81.30;;;;;;5087985;28;19912;-75
2023/08/03 13:55:17;;;;;;;;;;;22.50;81.40;;;;;;5089839;28;19920;-80
2023/08/03 13:57:42;;;;;;;;;;;22.30;81.70;;;;;;5092363;28;19916;-76
2023/08/03 14:00:09;;;;;;;;;;;22.20;81.80;;;;;;5089923;28;19927;-78
2023/08/03 14:02:35;;;;;;;;;;;22.30;81.90;;;;;;5091212;28;20020;-74
2023/08/03 14:05:01;;;;;;;;;;;22.40;82.10;;;;;;5090848;28;20109;-75
2023/08/03 14:07:26;;;;;;;;;;;22.60;82.00;;;;;;5090716;28;19908;-75
2023/08/03 14:09:52;;;;;;;;;;;22.80;81.80;;;;;;5089686;28;19987;-79
2023/08/03 14:12:17;;;;;;;;;;;23.00;81.60;;;;;;5092426;28;19912;-79